sensor_id;sensor_type;location;lat;lon;timestamp;P1;durP1;ratioP1;P2;durP2;ratioP2
787;SDS011;16074;42.708;23.312;2024-01-15T00:01:53;124.70;;;56.70;;
787;SDS011;16074;42.708;23.312;2024-01-15T00:04:18;131.15;;;58.47;;
787;SDS011;16074;42.708;23.312;2024-01-15T00:06:44;124.93;;;57.27;;
787;SDS011;16074;42.708;23.312;2024-01-15T00:09:09;120.38;;;59.10;;
787;SDS011;16074;42.708;23.312;2024-01-15T00:11:35;123.80;;;55.80;;
787;SDS011;16074;42.708;23.312;2024-01-15T00:14:00;129.05;;;57.50;;
787;SDS011;16074;42.708;23.312;2024-01-15T00:16:25;113.72;;;51.70;;
787;SDS011;16074;42.708;23.312;2024-01-15T00:18:51;126.85;;;56.53;;
787;SDS011;16074;42.708;23.312;2024-01-15T00:21:16;101.90;;;48.83;;
787;SDS011;16074;42.708;23.312;2024-01-15T00:23:42;118.68;;;56.85;;
787;SDS011;16074;42.708;23.312;2024-01-15T00:26:09;129.90;;;57.35;;
787;SDS011;16074;42.708;23.312;2024-01-15T00:28:35;124.53;;;54.10;;
787;SDS011;16074;42.708;23.312;2024-01-15T00:31:01;120.82;;;55.35;;
787;SDS011;16074;42.708;23.312;2024-01-15T00:33:26;129.25;;;57.55;;
787;SDS011;16074;42.708;23.312;2024-01-15T00:35:52;107.87;;;49.57;;
787;SDS011;16074;42.708;23.312;2024-01-15T00:38:17;114.28;;;49.55;;
787;SDS011;16074;42.708;23.312;2024-01-15T00:40:42;107.90;;;47.92;;
787;SDS011;16074;42.708;23.312;2024-01-15T00:43:08;119.22;;;51.40;;
787;SDS011;16074;42.708;23.312;2024-01-15T00:45:33;116.15;;;51.33;;
787;SDS011;16074;42.708;23.312;2024-01-15T00:47:59;106.07;;;47.22;;
787;SDS011;16074;42.708;23.312;2024-01-15T00:50:26;104.43;;;48.95;;
787;SDS011;16074;42.708;23.312;2024-01-15T00:52:51;95.00;;;42.72;;
787;SDS011;16074;42.708;23.312;2024-01-15T00:55:16;94.18;;;40.58;;
787;SDS011;16074;42.708;23.312;2024-01-15T00:57:42;92.97;;;41.53;;
787;SDS011;16074;42.708;23.312;2024-01-15T01:00:07;86.63;;;39.38;;
787;SDS011;16074;42.708;23.312;2024-01-15T01:02:34;98.68;;;45.50;;
787;SDS011;16074;42.708;23.312;2024-01-15T01:04:59;97.10;;;43.38;;
787;SDS011;16074;42.708;23.312;2024-01-15T01:07:25;87.28;;;41.17;;
787;SDS011;16074;42.708;23.312;2024-01-15T01:09:50;94.57;;;45.17;;
787;SDS011;16074;42.708;23.312;2024-01-15T01:12:16;95.10;;;43.08;;
787;SDS011;16074;42.708;23.312;2024-01-15T01:14:42;103.38;;;45.78;;
787;SDS011;16074;42.708;23.312;2024-01-15T01:17:07;109.95;;;52.80;;
787;SDS011;16074;42.708;23.312;2024-01-15T01:19:32;106.88;;;49.78;;
787;SDS011;16074;42.708;23.312;2024-01-15T01:21:58;111.38;;;51.50;;
787;SDS011;16074;42.708;23.312;2024-01-15T01:24:23;107.80;;;49.97;;
787;SDS011;16074;42.708;23.312;2024-01-15T01:26:48;110.38;;;45.85;;
787;SDS011;16074;42.708;23.312;2024-01-15T01:29:14;108.15;;;47.55;;
787;SDS011;16074;42.708;23.312;2024-01-15T01:31:43;102.28;;;44.38;;
787;SDS011;16074;42.708;23.312;2024-01-15T01:34:09;102.63;;;46.53;;
787;SDS011;16074;42.708;23.312;2024-01-15T01:36:35;94.82;;;44.58;;
787;SDS011;16074;42.708;23.312;2024-01-15T01:39:00;101.77;;;45.80;;
787;SDS011;16074;42.708;23.312;2024-01-15T01:41:25;99.35;;;42.92;;
787;SDS011;16074;42.708;23.312;2024-01-15T01:43:51;85.60;;;42.90;;
787;SDS011;16074;42.708;23.312;2024-01-15T01:46:16;104.60;;;46.17;;
787;SDS011;16074;42.708;23.312;2024-01-15T01:48:42;92.85;;;44.85;;
787;SDS011;16074;42.708;23.312;2024-01-15T01:51:08;93.68;;;42.85;;
787;SDS011;16074;42.708;23.312;2024-01-15T01:53:35;113.00;;;49.83;;
787;SDS011;16074;42.708;23.312;2024-01-15T01:56:03;105.57;;;46.42;;
787;SDS011;16074;42.708;23.312;2024-01-15T01:58:29;98.93;;;44.00;;
787;SDS011;16074;42.708;23.312;2024-01-15T02:00:57;98.47;;;44.10;;
787;SDS011;16074;42.708;23.312;2024-01-15T02:03:23;100.88;;;44.00;;
787;SDS011;16074;42.708;23.312;2024-01-15T02:05:50;104.90;;;48.40;;
787;SDS011;16074;42.708;23.312;2024-01-15T02:08:16;106.28;;;51.35;;
787;SDS011;16074;42.708;23.312;2024-01-15T02:10:41;109.05;;;45.58;;
787;SDS011;16074;42.708;23.312;2024-01-15T02:13:07;97.53;;;46.80;;
787;SDS011;16074;42.708;23.312;2024-01-15T02:15:32;109.22;;;49.58;;
787;SDS011;16074;42.708;23.312;2024-01-15T02:18:01;115.23;;;54.00;;
787;SDS011;16074;42.708;23.312;2024-01-15T02:20:28;118.53;;;53.25;;
787;SDS011;16074;42.708;23.312;2024-01-15T02:23:01;101.90;;;51.78;;
787;SDS011;16074;42.708;23.312;2024-01-15T02:25:34;117.25;;;52.75;;
787;SDS011;16074;42.708;23.312;2024-01-15T02:28:00;102.70;;;46.80;;
787;SDS011;16074;42.708;23.312;2024-01-15T02:30:26;101.93;;;48.58;;
787;SDS011;16074;42.708;23.312;2024-01-15T02:32:54;113.85;;;51.55;;
787;SDS011;16074;42.708;23.312;2024-01-15T02:35:19;102.53;;;48.80;;
787;SDS011;16074;42.708;23.312;2024-01-15T02:37:44;108.22;;;49.97;;
787;SDS011;16074;42.708;23.312;2024-01-15T02:40:10;89.27;;;37.53;;
787;SDS011;16074;42.708;23.312;2024-01-15T02:42:35;94.40;;;43.42;;
787;SDS011;16074;42.708;23.312;2024-01-15T02:45:01;88.40;;;42.17;;
787;SDS011;16074;42.708;23.312;2024-01-15T02:47:26;92.95;;;42.83;;
787;SDS011;16074;42.708;23.312;2024-01-15T02:49:51;87.63;;;42.78;;
787;SDS011;16074;42.708;23.312;2024-01-15T02:52:17;95.00;;;42.53;;
787;SDS011;16074;42.708;23.312;2024-01-15T02:54:43;100.55;;;42.45;;
787;SDS011;16074;42.708;23.312;2024-01-15T02:57:09;94.82;;;44.97;;
787;SDS011;16074;42.708;23.312;2024-01-15T02:59:34;105.40;;;46.93;;
787;SDS011;16074;42.708;23.312;2024-01-15T03:02:00;101.97;;;44.58;;
787;SDS011;16074;42.708;23.312;2024-01-15T03:04:25;94.32;;;41.65;;
787;SDS011;16074;42.708;23.312;2024-01-15T03:06:50;93.23;;;42.00;;
787;SDS011;16074;42.708;23.312;2024-01-15T03:09:16;97.03;;;45.30;;
787;SDS011;16074;42.708;23.312;2024-01-15T03:11:41;112.50;;;53.17;;
787;SDS011;16074;42.708;23.312;2024-01-15T03:14:06;113.15;;;50.75;;
787;SDS011;16074;42.708;23.312;2024-01-15T03:16:32;92.53;;;42.83;;
787;SDS011;16074;42.708;23.312;2024-01-15T03:19:00;107.93;;;45.92;;
787;SDS011;16074;42.708;23.312;2024-01-15T03:21:26;88.40;;;38.63;;
787;SDS011;16074;42.708;23.312;2024-01-15T03:23:51;89.40;;;41.50;;
787;SDS011;16074;42.708;23.312;2024-01-15T03:26:16;73.97;;;32.97;;
787;SDS011;16074;42.708;23.312;2024-01-15T03:28:42;74.00;;;37.77;;
787;SDS011;16074;42.708;23.312;2024-01-15T03:31:07;79.68;;;36.03;;
787;SDS011;16074;42.708;23.312;2024-01-15T03:33:32;76.82;;;36.85;;
787;SDS011;16074;42.708;23.312;2024-01-15T03:35:58;75.17;;;35.10;;
787;SDS011;16074;42.708;23.312;2024-01-15T03:38:24;71.13;;;34.13;;
787;SDS011;16074;42.708;23.312;2024-01-15T03:40:49;73.30;;;32.83;;
787;SDS011;16074;42.708;23.312;2024-01-15T03:43:14;72.35;;;31.58;;
787;SDS011;16074;42.708;23.312;2024-01-15T03:45:40;65.68;;;29.38;;
787;SDS011;16074;42.708;23.312;2024-01-15T03:48:05;59.15;;;28.90;;
787;SDS011;16074;42.708;23.312;2024-01-15T03:50:31;58.67;;;28.15;;
787;SDS011;16074;42.708;23.312;2024-01-15T03:52:56;63.75;;;29.25;;
787;SDS011;16074;42.708;23.312;2024-01-15T03:55:22;55.67;;;27.20;;
787;SDS011;16074;42.708;23.312;2024-01-15T03:57:47;60.13;;;28.08;;
787;SDS011;16074;42.708;23.312;2024-01-15T04:00:13;55.15;;;25.30;;
787;SDS011;16074;42.708;23.312;2024-01-15T04:02:39;59.42;;;26.17;;
787;SDS011;16074;42.708;23.312;2024-01-15T04:05:05;55.15;;;23.23;;
787;SDS011;16074;42.708;23.312;2024-01-15T04:07:30;41.47;;;21.58;;
787;SDS011;16074;42.708;23.312;2024-01-15T04:09:55;46.35;;;21.65;;
787;SDS011;16074;42.708;23.312;2024-01-15T04:12:21;49.95;;;21.42;;
787;SDS011;16074;42.708;23.312;2024-01-15T04:14:46;47.87;;;21.03;;
787;SDS011;16074;42.708;23.312;2024-01-15T04:17:11;50.60;;;23.45;;
787;SDS011;16074;42.708;23.312;2024-01-15T04:19:37;46.03;;;20.90;;
787;SDS011;16074;42.708;23.312;2024-01-15T04:22:02;50.88;;;20.67;;
787;SDS011;16074;42.708;23.312;2024-01-15T04:24:28;54.00;;;23.75;;
787;SDS011;16074;42.708;23.312;2024-01-15T04:26:53;48.45;;;21.42;;
787;SDS011;16074;42.708;23.312;2024-01-15T04:29:18;42.38;;;21.35;;
787;SDS011;16074;42.708;23.312;2024-01-15T04:31:44;58.33;;;25.88;;
787;SDS011;16074;42.708;23.312;2024-01-15T04:34:09;57.23;;;24.37;;
787;SDS011;16074;42.708;23.312;2024-01-15T04:36:40;56.80;;;26.08;;
787;SDS011;16074;42.708;23.312;2024-01-15T04:39:06;60.22;;;27.23;;
787;SDS011;16074;42.708;23.312;2024-01-15T04:41:32;64.00;;;27.15;;
787;SDS011;16074;42.708;23.312;2024-01-15T04:43:58;57.50;;;28.25;;
787;SDS011;16074;42.708;23.312;2024-01-15T04:46:25;57.38;;;27.52;;
787;SDS011;16074;42.708;23.312;2024-01-15T04:48:50;65.68;;;27.80;;
787;SDS011;16074;42.708;23.312;2024-01-15T04:51:16;56.07;;;28.67;;
787;SDS011;16074;42.708;23.312;2024-01-15T04:53:41;69.50;;;29.67;;
787;SDS011;16074;42.708;23.312;2024-01-15T04:56:06;65.82;;;31.13;;
787;SDS011;16074;42.708;23.312;2024-01-15T04:58:32;76.97;;;34.57;;
787;SDS011;16074;42.708;23.312;2024-01-15T05:00:57;70.38;;;33.60;;
787;SDS011;16074;42.708;23.312;2024-01-15T05:03:22;69.77;;;33.37;;
787;SDS011;16074;42.708;23.312;2024-01-15T05:05:48;71.03;;;30.83;;
787;SDS011;16074;42.708;23.312;2024-01-15T05:08:13;61.05;;;28.77;;
787;SDS011;16074;42.708;23.312;2024-01-15T05:10:38;67.95;;;30.98;;
787;SDS011;16074;42.708;23.312;2024-01-15T05:13:04;57.55;;;26.98;;
787;SDS011;16074;42.708;23.312;2024-01-15T05:15:29;59.83;;;28.33;;
787;SDS011;16074;42.708;23.312;2024-01-15T05:17:54;61.80;;;30.13;;
787;SDS011;16074;42.708;23.312;2024-01-15T05:20:20;57.53;;;28.65;;
787;SDS011;16074;42.708;23.312;2024-01-15T05:22:45;61.95;;;28.70;;
787;SDS011;16074;42.708;23.312;2024-01-15T05:25:11;74.82;;;32.55;;
787;SDS011;16074;42.708;23.312;2024-01-15T05:27:36;68.13;;;32.55;;
787;SDS011;16074;42.708;23.312;2024-01-15T05:30:02;67.10;;;32.57;;
787;SDS011;16074;42.708;23.312;2024-01-15T05:32:27;69.65;;;31.77;;
787;SDS011;16074;42.708;23.312;2024-01-15T05:34:53;69.63;;;33.65;;
787;SDS011;16074;42.708;23.312;2024-01-15T05:37:18;72.37;;;32.00;;
787;SDS011;16074;42.708;23.312;2024-01-15T05:39:44;71.13;;;33.40;;
787;SDS011;16074;42.708;23.312;2024-01-15T05:42:09;74.15;;;31.95;;
787;SDS011;16074;42.708;23.312;2024-01-15T05:44:34;71.20;;;32.83;;
787;SDS011;16074;42.708;23.312;2024-01-15T05:47:00;69.63;;;33.75;;
787;SDS011;16074;42.708;23.312;2024-01-15T05:49:25;67.83;;;30.30;;
787;SDS011;16074;42.708;23.312;2024-01-15T05:51:50;75.53;;;35.50;;
787;SDS011;16074;42.708;23.312;2024-01-15T05:54:17;68.72;;;33.60;;
787;SDS011;16074;42.708;23.312;2024-01-15T05:56:43;72.10;;;32.72;;
787;SDS011;16074;42.708;23.312;2024-01-15T05:59:09;64.97;;;30.53;;
787;SDS011;16074;42.708;23.312;2024-01-15T06:01:34;66.22;;;31.38;;
787;SDS011;16074;42.708;23.312;2024-01-15T06:03:59;64.10;;;33.70;;
787;SDS011;16074;42.708;23.312;2024-01-15T06:06:25;64.25;;;31.73;;
787;SDS011;16074;42.708;23.312;2024-01-15T06:08:50;71.25;;;32.80;;
787;SDS011;16074;42.708;23.312;2024-01-15T06:11:15;73.27;;;33.70;;
787;SDS011;16074;42.708;23.312;2024-01-15T06:13:41;86.85;;;37.95;;
787;SDS011;16074;42.708;23.312;2024-01-15T06:16:13;79.15;;;37.15;;
787;SDS011;16074;42.708;23.312;2024-01-15T06:18:40;69.97;;;33.60;;
787;SDS011;16074;42.708;23.312;2024-01-15T06:21:05;91.10;;;40.20;;
787;SDS011;16074;42.708;23.312;2024-01-15T06:23:31;82.25;;;39.08;;
787;SDS011;16074;42.708;23.312;2024-01-15T06:25:56;78.07;;;37.43;;
787;SDS011;16074;42.708;23.312;2024-01-15T06:28:21;75.07;;;35.63;;
787;SDS011;16074;42.708;23.312;2024-01-15T06:30:47;84.03;;;38.63;;
787;SDS011;16074;42.708;23.312;2024-01-15T06:33:13;98.50;;;46.28;;
787;SDS011;16074;42.708;23.312;2024-01-15T06:35:38;83.38;;;40.88;;
787;SDS011;16074;42.708;23.312;2024-01-15T06:38:03;80.10;;;38.60;;
787;SDS011;16074;42.708;23.312;2024-01-15T06:40:29;86.85;;;38.13;;
787;SDS011;16074;42.708;23.312;2024-01-15T06:42:54;83.65;;;37.80;;
787;SDS011;16074;42.708;23.312;2024-01-15T06:45:19;91.82;;;38.75;;
787;SDS011;16074;42.708;23.312;2024-01-15T06:47:45;89.47;;;39.05;;
787;SDS011;16074;42.708;23.312;2024-01-15T06:50:10;74.23;;;37.30;;
787;SDS011;16074;42.708;23.312;2024-01-15T06:52:35;79.05;;;39.47;;
787;SDS011;16074;42.708;23.312;2024-01-15T06:55:01;79.28;;;38.45;;
787;SDS011;16074;42.708;23.312;2024-01-15T06:57:27;79.40;;;40.95;;
787;SDS011;16074;42.708;23.312;2024-01-15T06:59:52;84.40;;;39.50;;
787;SDS011;16074;42.708;23.312;2024-01-15T07:02:17;85.60;;;38.75;;
787;SDS011;16074;42.708;23.312;2024-01-15T07:04:43;76.67;;;37.87;;
787;SDS011;16074;42.708;23.312;2024-01-15T07:07:08;91.75;;;43.72;;
787;SDS011;16074;42.708;23.312;2024-01-15T07:09:33;96.30;;;42.35;;
787;SDS011;16074;42.708;23.312;2024-01-15T07:11:59;86.03;;;41.28;;
787;SDS011;16074;42.708;23.312;2024-01-15T07:14:24;80.47;;;38.78;;
787;SDS011;16074;42.708;23.312;2024-01-15T07:16:49;89.45;;;39.40;;
787;SDS011;16074;42.708;23.312;2024-01-15T07:19:15;86.13;;;42.90;;
787;SDS011;16074;42.708;23.312;2024-01-15T07:21:40;93.05;;;42.28;;
787;SDS011;16074;42.708;23.312;2024-01-15T07:24:07;86.45;;;39.50;;
787;SDS011;16074;42.708;23.312;2024-01-15T07:26:33;94.65;;;45.63;;
787;SDS011;16074;42.708;23.312;2024-01-15T07:28:59;87.63;;;39.70;;
787;SDS011;16074;42.708;23.312;2024-01-15T07:31:24;78.07;;;39.35;;
787;SDS011;16074;42.708;23.312;2024-01-15T07:33:49;82.45;;;38.80;;
787;SDS011;16074;42.708;23.312;2024-01-15T07:36:15;77.77;;;36.03;;
787;SDS011;16074;42.708;23.312;2024-01-15T07:38:40;83.18;;;38.40;;
787;SDS011;16074;42.708;23.312;2024-01-15T07:41:05;79.50;;;36.37;;
787;SDS011;16074;42.708;23.312;2024-01-15T07:43:31;77.43;;;38.17;;
787;SDS011;16074;42.708;23.312;2024-01-15T07:45:56;82.33;;;39.07;;
787;SDS011;16074;42.708;23.312;2024-01-15T07:48:22;83.15;;;40.80;;
787;SDS011;16074;42.708;23.312;2024-01-15T07:50:47;77.88;;;36.85;;
787;SDS011;16074;42.708;23.312;2024-01-15T07:53:13;87.30;;;42.13;;
787;SDS011;16074;42.708;23.312;2024-01-15T07:55:38;83.13;;;39.67;;
787;SDS011;16074;42.708;23.312;2024-01-15T07:58:04;87.20;;;42.33;;
787;SDS011;16074;42.708;23.312;2024-01-15T08:00:29;96.53;;;48.30;;
787;SDS011;16074;42.708;23.312;2024-01-15T08:02:55;90.00;;;43.65;;
787;SDS011;16074;42.708;23.312;2024-01-15T08:05:20;84.53;;;42.20;;
787;SDS011;16074;42.708;23.312;2024-01-15T08:07:46;86.57;;;43.03;;
787;SDS011;16074;42.708;23.312;2024-01-15T08:10:11;88.30;;;41.45;;
787;SDS011;16074;42.708;23.312;2024-01-15T08:12:38;97.85;;;44.67;;
787;SDS011;16074;42.708;23.312;2024-01-15T08:15:04;99.90;;;47.95;;
787;SDS011;16074;42.708;23.312;2024-01-15T08:17:30;105.05;;;49.03;;
787;SDS011;16074;42.708;23.312;2024-01-15T08:19:57;100.80;;;46.72;;
787;SDS011;16074;42.708;23.312;2024-01-15T08:22:22;93.32;;;46.63;;
787;SDS011;16074;42.708;23.312;2024-01-15T08:24:48;100.13;;;48.85;;
787;SDS011;16074;42.708;23.312;2024-01-15T08:27:14;105.35;;;47.85;;
787;SDS011;16074;42.708;23.312;2024-01-15T08:29:39;99.15;;;50.10;;
787;SDS011;16074;42.708;23.312;2024-01-15T08:32:04;95.80;;;47.17;;
787;SDS011;16074;42.708;23.312;2024-01-15T08:34:30;96.38;;;49.60;;
787;SDS011;16074;42.708;23.312;2024-01-15T08:36:56;94.90;;;48.08;;
787;SDS011;16074;42.708;23.312;2024-01-15T08:39:21;99.13;;;50.30;;
787;SDS011;16074;42.708;23.312;2024-01-15T08:41:47;103.82;;;50.33;;
787;SDS011;16074;42.708;23.312;2024-01-15T08:44:12;101.78;;;49.03;;
787;SDS011;16074;42.708;23.312;2024-01-15T08:46:38;109.63;;;51.65;;
787;SDS011;16074;42.708;23.312;2024-01-15T08:49:03;111.28;;;54.92;;
787;SDS011;16074;42.708;23.312;2024-01-15T08:51:29;110.53;;;53.47;;
787;SDS011;16074;42.708;23.312;2024-01-15T08:53:55;104.97;;;51.28;;
787;SDS011;16074;42.708;23.312;2024-01-15T08:56:23;103.75;;;53.47;;
787;SDS011;16074;42.708;23.312;2024-01-15T08:58:48;104.27;;;49.80;;
787;SDS011;16074;42.708;23.312;2024-01-15T09:01:14;114.15;;;51.72;;
787;SDS011;16074;42.708;23.312;2024-01-15T09:03:39;107.88;;;51.83;;
787;SDS011;16074;42.708;23.312;2024-01-15T09:06:07;101.65;;;51.45;;
787;SDS011;16074;42.708;23.312;2024-01-15T09:08:32;101.95;;;49.75;;
787;SDS011;16074;42.708;23.312;2024-01-15T09:10:58;111.10;;;53.25;;
787;SDS011;16074;42.708;23.312;2024-01-15T09:13:23;115.32;;;53.70;;
787;SDS011;16074;42.708;23.312;2024-01-15T09:15:48;106.18;;;51.97;;
787;SDS011;16074;42.708;23.312;2024-01-15T09:18:14;103.07;;;50.20;;
787;SDS011;16074;42.708;23.312;2024-01-15T09:20:39;111.82;;;53.92;;
787;SDS011;16074;42.708;23.312;2024-01-15T09:23:05;113.97;;;53.13;;
787;SDS011;16074;42.708;23.312;2024-01-15T09:25:30;97.25;;;48.70;;
787;SDS011;16074;42.708;23.312;2024-01-15T09:27:56;104.05;;;50.72;;
787;SDS011;16074;42.708;23.312;2024-01-15T09:30:22;97.50;;;48.55;;
787;SDS011;16074;42.708;23.312;2024-01-15T09:32:47;88.33;;;47.90;;
787;SDS011;16074;42.708;23.312;2024-01-15T09:35:13;96.85;;;48.47;;
787;SDS011;16074;42.708;23.312;2024-01-15T09:37:39;108.50;;;53.85;;
787;SDS011;16074;42.708;23.312;2024-01-15T09:40:05;112.80;;;52.45;;
787;SDS011;16074;42.708;23.312;2024-01-15T09:42:33;107.78;;;54.55;;
787;SDS011;16074;42.708;23.312;2024-01-15T09:45:00;99.07;;;50.22;;
787;SDS011;16074;42.708;23.312;2024-01-15T09:47:28;105.43;;;50.58;;
787;SDS011;16074;42.708;23.312;2024-01-15T09:49:54;96.20;;;50.10;;
787;SDS011;16074;42.708;23.312;2024-01-15T09:52:21;98.13;;;47.65;;
787;SDS011;16074;42.708;23.312;2024-01-15T09:54:47;99.65;;;47.35;;
787;SDS011;16074;42.708;23.312;2024-01-15T09:57:13;99.57;;;48.38;;
787;SDS011;16074;42.708;23.312;2024-01-15T09:59:39;95.22;;;46.13;;
787;SDS011;16074;42.708;23.312;2024-01-15T10:02:07;88.43;;;42.80;;
787;SDS011;16074;42.708;23.312;2024-01-15T10:04:34;86.22;;;42.10;;
787;SDS011;16074;42.708;23.312;2024-01-15T10:07:00;85.65;;;42.75;;
787;SDS011;16074;42.708;23.312;2024-01-15T10:09:26;80.07;;;41.83;;
787;SDS011;16074;42.708;23.312;2024-01-15T10:11:51;87.38;;;41.47;;
787;SDS011;16074;42.708;23.312;2024-01-15T10:14:17;73.45;;;37.63;;
787;SDS011;16074;42.708;23.312;2024-01-15T10:16:42;72.13;;;36.28;;
787;SDS011;16074;42.708;23.312;2024-01-15T10:19:08;83.53;;;40.15;;
787;SDS011;16074;42.708;23.312;2024-01-15T10:21:34;89.10;;;40.80;;
787;SDS011;16074;42.708;23.312;2024-01-15T10:24:00;80.30;;;39.03;;
787;SDS011;16074;42.708;23.312;2024-01-15T10:26:27;74.57;;;40.20;;
787;SDS011;16074;42.708;23.312;2024-01-15T10:28:53;80.18;;;40.05;;
787;SDS011;16074;42.708;23.312;2024-01-15T10:31:18;73.60;;;38.53;;
787;SDS011;16074;42.708;23.312;2024-01-15T10:33:50;65.70;;;36.47;;
787;SDS011;16074;42.708;23.312;2024-01-15T10:36:16;67.90;;;35.72;;
787;SDS011;16074;42.708;23.312;2024-01-15T10:41:10;74.97;;;34.70;;
787;SDS011;16074;42.708;23.312;2024-01-15T10:43:35;69.88;;;36.88;;
787;SDS011;16074;42.708;23.312;2024-01-15T10:46:01;68.78;;;33.80;;
787;SDS011;16074;42.708;23.312;2024-01-15T10:48:27;61.90;;;33.90;;
787;SDS011;16074;42.708;23.312;2024-01-15T10:50:56;66.82;;;35.65;;
787;SDS011;16074;42.708;23.312;2024-01-15T10:53:22;67.25;;;35.90;;
787;SDS011;16074;42.708;23.312;2024-01-15T10:55:50;74.07;;;36.33;;
787;SDS011;16074;42.708;23.312;2024-01-15T10:58:16;65.28;;;34.88;;
787;SDS011;16074;42.708;23.312;2024-01-15T11:00:42;64.32;;;32.63;;
787;SDS011;16074;42.708;23.312;2024-01-15T11:03:08;65.70;;;35.45;;
787;SDS011;16074;42.708;23.312;2024-01-15T11:05:53;63.55;;;33.05;;
787;SDS011;16074;42.708;23.312;2024-01-15T11:08:19;67.93;;;33.33;;
787;SDS011;16074;42.708;23.312;2024-01-15T11:10:48;68.65;;;33.42;;
787;SDS011;16074;42.708;23.312;2024-01-15T11:13:20;64.57;;;33.45;;
787;SDS011;16074;42.708;23.312;2024-01-15T11:16:03;63.95;;;35.28;;
787;SDS011;16074;42.708;23.312;2024-01-15T11:18:30;54.90;;;30.85;;
787;SDS011;16074;42.708;23.312;2024-01-15T11:23:47;62.95;;;32.78;;
787;SDS011;16074;42.708;23.312;2024-01-15T11:26:27;61.42;;;29.65;;
787;SDS011;16074;42.708;23.312;2024-01-15T11:28:54;53.50;;;28.80;;
787;SDS011;16074;42.708;23.312;2024-01-15T11:31:20;40.08;;;22.35;;
787;SDS011;16074;42.708;23.312;2024-01-15T11:33:51;46.67;;;24.65;;
787;SDS011;16074;42.708;23.312;2024-01-15T11:36:17;46.22;;;23.02;;
787;SDS011;16074;42.708;23.312;2024-01-15T11:38:42;46.63;;;24.67;;
787;SDS011;16074;42.708;23.312;2024-01-15T11:41:14;46.90;;;22.27;;
787;SDS011;16074;42.708;23.312;2024-01-15T11:43:41;60.03;;;29.38;;
787;SDS011;16074;42.708;23.312;2024-01-15T11:46:08;58.10;;;28.50;;
787;SDS011;16074;42.708;23.312;2024-01-15T11:48:43;49.75;;;25.13;;
787;SDS011;16074;42.708;23.312;2024-01-15T11:51:12;48.03;;;25.30;;
787;SDS011;16074;42.708;23.312;2024-01-15T11:53:47;41.55;;;24.90;;
787;SDS011;16074;42.708;23.312;2024-01-15T11:56:16;46.22;;;24.90;;
787;SDS011;16074;42.708;23.312;2024-01-15T11:58:43;51.13;;;24.33;;
787;SDS011;16074;42.708;23.312;2024-01-15T12:01:10;45.80;;;25.58;;
787;SDS011;16074;42.708;23.312;2024-01-15T12:03:35;46.13;;;25.13;;
787;SDS011;16074;42.708;23.312;2024-01-15T12:06:01;43.90;;;23.13;;
787;SDS011;16074;42.708;23.312;2024-01-15T12:08:26;49.42;;;23.77;;
787;SDS011;16074;42.708;23.312;2024-01-15T12:10:52;43.80;;;23.83;;
787;SDS011;16074;42.708;23.312;2024-01-15T12:13:19;46.40;;;23.65;;
787;SDS011;16074;42.708;23.312;2024-01-15T12:15:46;48.40;;;24.25;;
787;SDS011;16074;42.708;23.312;2024-01-15T12:18:14;47.88;;;23.05;;
787;SDS011;16074;42.708;23.312;2024-01-15T12:20:40;41.72;;;21.63;;
787;SDS011;16074;42.708;23.312;2024-01-15T12:23:07;40.08;;;22.23;;
787;SDS011;16074;42.708;23.312;2024-01-15T12:25:33;39.58;;;22.05;;
787;SDS011;16074;42.708;23.312;2024-01-15T12:27:59;35.15;;;18.88;;
787;SDS011;16074;42.708;23.312;2024-01-15T12:30:29;40.08;;;19.50;;
787;SDS011;16074;42.708;23.312;2024-01-15T12:32:58;32.95;;;18.50;;
787;SDS011;16074;42.708;23.312;2024-01-15T12:35:26;32.63;;;19.08;;
787;SDS011;16074;42.708;23.312;2024-01-15T12:37:52;36.95;;;18.95;;
787;SDS011;16074;42.708;23.312;2024-01-15T12:40:19;34.05;;;18.30;;
787;SDS011;16074;42.708;23.312;2024-01-15T12:42:46;40.63;;;19.58;;
787;SDS011;16074;42.708;23.312;2024-01-15T12:45:12;40.40;;;20.05;;
787;SDS011;16074;42.708;23.312;2024-01-15T12:47:38;42.67;;;21.30;;
787;SDS011;16074;42.708;23.312;2024-01-15T12:50:08;34.72;;;20.30;;
787;SDS011;16074;42.708;23.312;2024-01-15T12:52:35;34.75;;;19.80;;
787;SDS011;16074;42.708;23.312;2024-01-15T12:55:02;42.92;;;21.92;;
787;SDS011;16074;42.708;23.312;2024-01-15T12:57:29;42.00;;;20.55;;
787;SDS011;16074;42.708;23.312;2024-01-15T12:59:54;47.83;;;22.08;;
787;SDS011;16074;42.708;23.312;2024-01-15T13:02:20;41.60;;;20.67;;
787;SDS011;16074;42.708;23.312;2024-01-15T13:04:45;40.13;;;20.25;;
787;SDS011;16074;42.708;23.312;2024-01-15T13:07:10;41.22;;;20.20;;
787;SDS011;16074;42.708;23.312;2024-01-15T13:09:36;36.47;;;18.58;;
787;SDS011;16074;42.708;23.312;2024-01-15T13:12:01;35.27;;;17.40;;
787;SDS011;16074;42.708;23.312;2024-01-15T13:14:27;38.50;;;17.50;;
787;SDS011;16074;42.708;23.312;2024-01-15T13:16:53;41.35;;;19.48;;
787;SDS011;16074;42.708;23.312;2024-01-15T13:19:19;39.97;;;19.90;;
787;SDS011;16074;42.708;23.312;2024-01-15T13:21:46;30.58;;;16.73;;
787;SDS011;16074;42.708;23.312;2024-01-15T13:24:12;31.85;;;18.90;;
787;SDS011;16074;42.708;23.312;2024-01-15T13:26:39;34.83;;;18.50;;
787;SDS011;16074;42.708;23.312;2024-01-15T13:29:04;38.47;;;17.83;;
787;SDS011;16074;42.708;23.312;2024-01-15T13:31:30;34.65;;;18.70;;
787;SDS011;16074;42.708;23.312;2024-01-15T13:33:57;30.77;;;17.15;;
787;SDS011;16074;42.708;23.312;2024-01-15T13:36:23;32.17;;;17.75;;
787;SDS011;16074;42.708;23.312;2024-01-15T13:38:49;31.10;;;17.58;;
787;SDS011;16074;42.708;23.312;2024-01-15T13:41:18;38.17;;;19.13;;
787;SDS011;16074;42.708;23.312;2024-01-15T13:43:49;31.65;;;17.33;;
787;SDS011;16074;42.708;23.312;2024-01-15T13:46:14;34.72;;;18.08;;
787;SDS011;16074;42.708;23.312;2024-01-15T13:48:40;38.70;;;18.83;;
787;SDS011;16074;42.708;23.312;2024-01-15T13:51:05;35.05;;;19.40;;
787;SDS011;16074;42.708;23.312;2024-01-15T13:53:31;37.30;;;20.42;;
787;SDS011;16074;42.708;23.312;2024-01-15T13:55:56;34.47;;;19.08;;
787;SDS011;16074;42.708;23.312;2024-01-15T13:58:22;36.28;;;18.42;;
787;SDS011;16074;42.708;23.312;2024-01-15T14:00:47;38.55;;;18.77;;
787;SDS011;16074;42.708;23.312;2024-01-15T14:03:14;40.90;;;18.50;;
787;SDS011;16074;42.708;23.312;2024-01-15T14:05:40;35.45;;;19.67;;
787;SDS011;16074;42.708;23.312;2024-01-15T14:08:05;34.95;;;18.75;;
787;SDS011;16074;42.708;23.312;2024-01-15T14:10:31;40.33;;;18.95;;
787;SDS011;16074;42.708;23.312;2024-01-15T14:12:56;40.67;;;21.10;;
787;SDS011;16074;42.708;23.312;2024-01-15T14:15:21;40.45;;;20.27;;
787;SDS011;16074;42.708;23.312;2024-01-15T14:17:47;42.65;;;18.67;;
787;SDS011;16074;42.708;23.312;2024-01-15T14:20:12;41.88;;;19.80;;
787;SDS011;16074;42.708;23.312;2024-01-15T14:22:38;42.53;;;20.17;;
787;SDS011;16074;42.708;23.312;2024-01-15T14:25:03;45.45;;;21.55;;
787;SDS011;16074;42.708;23.312;2024-01-15T14:27:29;34.97;;;19.17;;
787;SDS011;16074;42.708;23.312;2024-01-15T14:29:54;41.45;;;19.10;;